Time;durP1;ratioP1;P1;durP2;ratioP2;P2;SDS_P1;SDS_P2;PMS_P1;PMS_P2;Temp;Humidity;BMP_temperature;BMP_pressure;BME280_temperature;BME280_humidity;BME280_pressure;Samples;Min_cycle;Max_cycle;Signal;HPM_P1;HPM_P2
2022/04/09 00:01:47;;;;;;;3.67;1.50;;;4.10;94.90;;;;;;20827202;28;20230;-66
2022/04/09 00:11:50;;;;;;;1.40;1.30;;;4.40;95.30;;;;;;20908521;28;20251;-65
2022/04/09 00:21:52;;;;;;;1.50;1.40;;;4.60;95.30;;;;;;20909826;28;20235;-64
2022/04/09 00:31:54;;;;;;;2.60;1.93;;;4.70;95.10;;;;;;20909786;28;20674;-64
2022/04/09 00:41:57;;;;;;;6.83;2.57;;;4.80;94.80;;;;;;20908641;28;20240;-64
2022/04/09 00:52:02;;;;;;;1.73;1.63;;;4.70;94.30;;;;;;20908966;28;20207;-64
2022/04/09 01:02:04;;;;;;;1.80;1.60;;;4.70;94.60;;;;;;20915671;28;20239;-63
2022/04/09 01:12:09;;;;;;;2.43;1.93;;;4.50;94.60;;;;;;20922685;28;20630;-63
2022/04/09 01:22:11;;;;;;;3.40;2.53;;;4.50;94.60;;;;;;20918997;28;20249;-64
2022/04/09 01:32:15;;;;;;;4.40;2.77;;;4.50;94.80;;;;;;20921856;28;20204;-70
2022/04/09 01:42:18;;;;;;;4.23;3.50;;;4.40;94.80;;;;;;20919209;28;20253;-66
2022/04/09 01:52:20;;;;;;;5.07;3.67;;;4.50;95.20;;;;;;20915648;28;20204;-66
2022/04/09 02:02:22;;;;;;;6.50;3.50;;;4.60;95.20;;;;;;20917419;28;20233;-70
2022/04/09 02:12:24;;;;;;;6.90;4.57;;;4.30;94.90;;;;;;20917906;28;20662;-68
2022/04/09 02:22:26;;;;;;;5.50;4.07;;;4.80;95.10;;;;;;20917027;28;20242;-69
2022/04/09 02:32:28;;;;;;;6.93;4.50;;;4.90;94.90;;;;;;20916716;28;20241;-68
2022/04/09 02:42:29;;;;;;;12.13;5.70;;;5.00;94.90;;;;;;20915526;28;20253;-68
2022/04/09 02:52:39;;;;;;;8.50;6.17;;;5.00;94.60;;;;;;20915400;28;20207;-66
2022/04/09 03:02:42;;;;;;;10.13;6.70;;;4.90;94.70;;;;;;20914990;28;20595;-70
2022/04/09 03:12:46;;;;;;;9.87;6.63;;;4.90;94.80;;;;;;20914105;28;20204;-64
2022/04/09 03:22:48;;;;;;;12.77;7.50;;;5.00;94.80;;;;;;20912138;28;20240;-67
2022/04/09 03:32:50;;;;;;;11.37;7.53;;;5.00;94.50;;;;;;20912282;28;20230;-66
2022/04/09 03:42:52;;;;;;;10.23;7.70;;;5.00;94.40;;;;;;20911373;28;20238;-63
2022/04/09 03:52:54;;;;;;;13.20;8.50;;;5.00;94.30;;;;;;20864960;28;20306;-68
2022/04/09 04:02:58;;;;;;;12.13;7.60;;;5.00;94.30;;;;;;20826985;28;20239;-65
2022/04/09 04:13:00;;;;;;;12.13;8.30;;;5.00;94.30;;;;;;20826975;28;20664;-63
2022/04/09 04:23:03;;;;;;;13.03;8.17;;;5.00;94.20;;;;;;20827738;28;20247;-67
2022/04/09 04:38:27;;;;;;;14.10;8.63;;;5.00;94.30;;;;;;20983958;28;20573;-65
2022/04/09 04:48:29;;;;;;;15.87;8.60;;;5.00;94.20;;;;;;20982631;28;20301;-63
2022/04/09 04:58:31;;;;;;;14.03;8.40;;;5.00;94.20;;;;;;20964059;28;20218;-64
2022/04/09 05:08:33;;;;;;;13.13;9.23;;;5.10;94.10;;;;;;20906128;28;20203;-65
2022/04/09 05:18:35;;;;;;;14.13;9.03;;;5.10;94.00;;;;;;20955972;28;20211;-64
2022/04/09 05:28:37;;;;;;;13.20;8.87;;;5.20;94.00;;;;;;20978329;28;20199;-64
2022/04/09 05:38:39;;;;;;;17.30;9.27;;;5.30;93.90;;;;;;20978245;28;20208;-65
2022/04/09 05:48:40;;;;;;;17.77;8.63;;;5.40;94.20;;;;;;20923915;28;20211;-64
2022/04/09 05:58:42;;;;;;;18.90;9.03;;;5.50;94.10;;;;;;20839044;28;20807;-66
2022/04/09 06:09:04;;;;;;;13.17;8.40;;;5.60;93.70;;;;;;20886389;28;20239;-61
2022/04/09 06:19:06;;;;;;;13.17;8.10;;;5.80;93.40;;;;;;20920419;28;20203;-68
2022/04/09 06:29:08;;;;;;;13.93;7.07;;;5.80;93.60;;;;;;20919797;28;20247;-64
2022/04/09 06:39:11;;;;;;;9.47;6.40;;;5.90;93.00;;;;;;20919018;28;20661;-63
2022/04/09 06:49:16;;;;;;;12.70;6.70;;;6.10;92.90;;;;;;20908441;28;20228;-65
2022/04/09 06:59:17;;;;;;;13.20;6.80;;;6.40;92.70;;;;;;20832004;28;20212;-67
2022/04/09 07:09:19;;;;;;;11.77;5.90;;;6.60;92.50;;;;;;20892121;28;20228;-69
2022/04/09 07:19:21;;;;;;;11.27;5.57;;;6.50;92.10;;;;;;20915764;28;20678;-68
2022/04/09 07:29:22;;;;;;;8.70;4.47;;;6.60;92.50;;;;;;20913229;28;20242;-68
2022/04/09 07:39:24;;;;;;;11.23;4.37;;;6.70;91.60;;;;;;20912601;28;20209;-71
2022/04/09 07:49:26;;;;;;;9.73;3.83;;;6.70;91.60;;;;;;20900631;28;20711;-67
2022/04/09 07:59:27;;;;;;;20.67;11.10;;;6.90;91.40;;;;;;20830487;28;20209;-67
2022/04/09 08:09:29;;;;;;;11.83;3.57;;;7.00;90.90;;;;;;20891090;28;20243;-66
2022/04/09 08:19:31;;;;;;;7.10;3.20;;;7.20;90.20;;;;;;20911808;28;20665;-70
2022/04/09 08:29:32;;;;;;;8.70;3.10;;;7.30;90.10;;;;;;20910051;28;20698;-66
2022/04/09 08:39:34;;;;;;;11.63;3.20;;;7.50;88.40;;;;;;20910552;28;20241;-71
2022/04/09 08:49:38;;;;;;;10.40;3.00;;;7.70;87.70;;;;;;20897524;28;20226;-70
2022/04/09 08:59:40;;;;;;;10.17;2.70;;;7.70;88.20;;;;;;20828381;28;20219;-66
2022/04/09 09:09:42;;;;;;;6.70;2.83;;;7.80;85.70;;;;;;20843358;28;20238;-67
2022/04/09 09:19:46;;;;;;;12.00;6.50;;;7.80;84.80;;;;;;20867487;28;20213;-65
2022/04/09 09:29:53;;;;;;;15.93;4.60;;;7.90;84.50;;;;;;20924219;28;20251;-72
2022/04/09 09:39:55;;;;;;;10.40;3.47;;;7.90;83.90;;;;;;20924091;28;20209;-73
2022/04/09 09:49:58;;;;;;;7.80;2.60;;;8.00;84.60;;;;;;20923008;28;20234;-73
2022/04/09 10:00:04;;;;;;;10.10;2.97;;;8.10;83.90;;;;;;20922619;28;20211;-72
2022/04/09 10:10:07;;;;;;;8.07;3.37;;;8.30;82.00;;;;;;20921438;28;20595;-72
2022/04/09 10:20:10;;;;;;;8.40;3.70;;;8.40;81.10;;;;;;20920701;28;20204;-68
2022/04/09 10:30:13;;;;;;;11.13;3.53;;;8.40;81.80;;;;;;20920081;28;20331;-67
2022/04/09 10:40:15;;;;;;;12.13;4.07;;;8.30;80.30;;;;;;20917687;28;20210;-65
2022/04/09 10:50:17;;;;;;;8.60;3.47;;;8.40;79.70;;;;;;20899664;28;20329;-63
2022/04/09 11:00:29;;;;;;;6.60;3.20;;;8.50;78.70;;;;;;20837621;28;20211;-66
2022/04/09 11:10:31;;;;;;;7.90;2.90;;;8.60;77.00;;;;;;20840599;28;20284;-62
2022/04/09 11:20:35;;;;;;;7.37;2.60;;;8.80;74.90;;;;;;20915215;28;20198;-62
2022/04/09 11:30:37;;;;;;;5.53;2.53;;;8.90;75.40;;;;;;20913718;28;20243;-65
2022/04/09 11:40:46;;;;;;;7.63;2.40;;;8.90;74.50;;;;;;20914758;28;20197;-63
2022/04/09 11:50:48;;;;;;;10.87;2.90;;;9.10;73.40;;;;;;20913200;28;20238;-64
2022/04/09 12:00:50;;;;;;;8.13;2.37;;;9.50;72.20;;;;;;20910051;28;20233;-68
2022/04/09 12:11:09;;;;;;;9.33;2.50;;;9.70;72.50;;;;;;20907934;28;20263;-68
2022/04/09 12:21:23;;;;;;;7.63;2.77;;;10.40;68.20;;;;;;20911576;28;20571;-67
2022/04/09 12:31:25;;;;;;;7.43;2.73;;;10.40;68.20;;;;;;20911210;28;20590;-70
2022/04/09 12:41:43;;;;;;;5.87;2.50;;;10.40;67.80;;;;;;20910603;28;20569;-65
2022/04/09 12:51:46;;;;;;;6.50;2.20;;;10.90;65.50;;;;;;20912224;28;20245;-68
2022/04/09 13:01:49;;;;;;;9.03;2.60;;;11.00;63.60;;;;;;20926308;28;20205;-70
2022/04/09 13:11:53;;;;;;;7.50;2.90;;;10.90;64.20;;;;;;20925733;28;20697;-67
2022/04/09 13:21:55;;;;;;;5.37;1.60;;;9.60;81.20;;;;;;20924471;28;20581;-68
2022/04/09 13:31:57;;;;;;;1.20;0.80;;;9.70;82.30;;;;;;20924481;28;20259;-64
2022/04/09 13:41:59;;;;;;;3.00;1.00;;;9.60;79.80;;;;;;20923433;28;20261;-69
2022/04/09 13:52:03;;;;;;;3.03;1.37;;;9.90;79.60;;;;;;20922440;28;20240;-71
2022/04/09 14:02:05;;;;;;;3.87;2.33;;;11.10;75.10;;;;;;20907453;28;20211;-70
2022/04/09 14:12:07;;;;;;;5.57;2.40;;;11.40;74.30;;;;;;20836187;28;20722;-71
2022/04/09 14:22:10;;;;;;;4.40;2.43;;;13.80;67.40;;;;;;20839380;28;20232;-71
2022/04/09 14:32:11;;;;;;;2.53;1.40;;;14.30;64.20;;;;;;20849556;28;20250;-63
2022/04/09 14:42:16;;;;;;;2.50;1.50;;;17.70;56.60;;;;;;20837719;28;20311;-63
2022/04/09 14:52:18;;;;;;;5.37;2.97;;;17.90;52.60;;;;;;20835930;28;20331;-63
2022/04/09 15:02:19;;;;;;;4.30;2.30;;;17.70;53.90;;;;;;20901450;28;20244;-63
2022/04/09 15:12:21;;;;;;;4.07;2.20;;;18.30;52.30;;;;;;20916663;28;20323;-64
2022/04/09 15:22:24;;;;;;;2.77;1.37;;;19.50;51.40;;;;;;20914560;28;20206;-63
2022/04/09 15:32:28;;;;;;;3.40;2.20;;;14.80;52.20;;;;;;20914275;28;20244;-63
2022/04/09 15:42:31;;;;;;;5.43;1.50;;;12.30;59.00;;;;;;20913727;28;20211;-63
2022/04/09 15:52:33;;;;;;;2.40;1.80;;;11.20;62.00;;;;;;20913504;28;20241;-62
2022/04/09 16:02:37;;;;;;;3.00;1.60;;;10.10;65.60;;;;;;20900393;28;20663;-64
2022/04/09 16:12:39;;;;;;;3.50;2.10;;;10.00;68.50;;;;;;20827942;28;20235;-69
2022/04/09 16:22:42;;;;;;;3.60;1.80;;;9.90;70.80;;;;;;20828470;28;20216;-69
2022/04/09 16:32:43;;;;;;;3.00;2.10;;;9.80;71.10;;;;;;20829565;28;20272;-63
2022/04/09 16:42:45;;;;;;;3.23;1.80;;;9.70;71.70;;;;;;20831609;28;20209;-63
2022/04/09 16:52:47;;;;;;;4.50;1.30;;;8.90;74.50;;;;;;20828747;28;20236;-65
2022/04/09 17:02:48;;;;;;;2.10;1.50;;;8.40;77.50;;;;;;20828935;28;20591;-63
2022/04/09 17:12:56;;;;;;;4.50;1.70;;;8.50;78.40;;;;;;20828487;28;20288;-66
2022/04/09 17:23:00;;;;;;;3.13;1.73;;;8.40;79.20;;;;;;20827396;28;20700;-67
2022/04/09 17:33:02;;;;;;;1.67;1.50;;;8.30;79.70;;;;;;20825980;28;20303;-68
2022/04/09 17:43:04;;;;;;;3.83;1.57;;;8.10;79.60;;;;;;20836422;28;20677;-71
2022/04/09 17:53:08;;;;;;;4.33;2.00;;;8.10;79.50;;;;;;20838452;28;20236;-70
2022/04/09 18:03:10;;;;;;;5.63;2.10;;;7.90;79.80;;;;;;20837945;28;20202;-65
2022/04/09 18:13:12;;;;;;;7.17;2.47;;;7.80;79.90;;;;;;20836493;28;20294;-64
2022/04/09 18:23:14;;;;;;;3.20;2.10;;;7.80;80.10;;;;;;20836364;28;20263;-68
2022/04/09 18:33:16;;;;;;;3.60;1.70;;;7.70;80.40;;;;;;20834473;28;20260;-68
2022/04/09 18:43:18;;;;;;;3.10;1.57;;;7.60;80.80;;;;;;20835016;28;20205;-69
2022/04/09 18:53:19;;;;;;;4.10;2.20;;;7.60;81.10;;;;;;20832935;28;20250;-67
2022/04/09 19:03:27;;;;;;;7.40;2.73;;;7.60;81.30;;;;;;20832216;28;20665;-69
2022/04/09 19:13:28;;;;;;;5.13;2.40;;;7.60;81.90;;;;;;20832181;28;20240;-65
2022/04/09 19:23:33;;;;;;;4.33;2.10;;;7.50;81.40;;;;;;20830784;28;20653;-67
2022/04/09 19:33:34;;;;;;;8.97;2.30;;;7.50;81.50;;;;;;20829219;28;20245;-70
2022/04/09 19:43:36;;;;;;;5.13;2.10;;;7.50;82.10;;;;;;20829001;28;20668;-67
2022/04/09 19:53:38;;;;;;;4.30;2.10;;;7.30;81.70;;;;;;20827760;28;20302;-67
2022/04/09 20:03:40;;;;;;;4.43;1.87;;;7.20;82.10;;;;;;20895033;28;20219;-64
2022/04/09 20:13:42;;;;;;;7.60;2.33;;;7.20;82.00;;;;;;20824700;28;20243;-68
2022/04/09 20:23:43;;;;;;;5.17;2.20;;;7.20;82.30;;;;;;20825923;28;20250;-70
2022/04/09 20:33:46;;;;;;;5.77;2.17;;;7.20;82.30;;;;;;20825149;28;20685;-70
2022/04/09 20:43:48;;;;;;;5.10;2.80;;;6.90;84.50;;;;;;20826102;28;20676;-66
2022/04/09 20:53:50;;;;;;;4.97;2.50;;;6.90;85.30;;;;;;20824818;28;20246;-65
2022/04/09 21:03:52;;;;;;;5.03;2.60;;;7.00;86.20;;;;;;20824394;28;20208;-64
2022/04/09 21:13:56;;;;;;;6.80;3.10;;;7.00;86.80;;;;;;20828447;28;20240;-66
2022/04/09 21:23:58;;;;;;;3.57;2.93;;;;;;;;;;20839799;28;20692;-65
2022/04/09 21:34:01;;;;;;;5.80;3.33;;;6.90;88.00;;;;;;20838739;28;20268;-65
2022/04/09 21:44:04;;;;;;;6.63;3.90;;;6.90;88.70;;;;;;20839162;28;20213;-65
2022/04/09 21:54:06;;;;;;;5.57;3.60;;;6.80;88.40;;;;;;20840610;28;20624;-72
2022/04/09 22:04:09;;;;;;;8.27;4.30;;;6.80;88.70;;;;;;20843626;28;20265;-66
2022/04/09 22:14:11;;;;;;;8.20;4.20;;;6.80;89.30;;;;;;20839873;28;20232;-66
2022/04/09 22:24:13;;;;;;;7.27;4.33;;;6.70;88.90;;;;;;20839151;28;20227;-71
2022/04/09 22:34:15;;;;;;;6.00;3.60;;;6.50;89.20;;;;;;20835977;28;20245;-68
2022/04/09 22:44:16;;;;;;;4.70;3.60;;;6.50;89.60;;;;;;20836839;28;20271;-66
2022/04/09 22:54:18;;;;;;;12.93;5.37;;;6.20;88.90;;;;;;20835594;28;20242;-66
2022/04/09 23:04:20;;;;;;;33.53;13.23;;;6.10;89.20;;;;;;20916733;28;20214;-66
2022/04/09 23:14:22;;;;;;;10.13;5.07;;;6.00;89.40;;;;;;20917102;28;20694;-68
2022/04/09 23:24:23;;;;;;;8.90;4.50;;;5.90;89.80;;;;;;20915904;28;20208;-70
2022/04/09 23:34:25;;;;;;;10.67;5.70;;;5.90;89.90;;;;;;20913194;28;20239;-66
2022/04/09 23:44:27;;;;;;;10.03;5.50;;;5.80;90.30;;;;;;20914714;28;20211;-66
2022/04/09 23:54:29;;;;;;;10.90;5.57;;;5.80;90.40;;;;;;20913166;28;20314;-68
